Cosco England — VRML8 — position and weather

sailwx.info

Track history (hours):
 
Tides and Currents Weather Stations Pressure Air Temp Water Temp Dewpoint Dewpoint Depression Visibility Wind Speed Wind Dir Waves Ship Positions

Cosco England

Last reported at 2017-Oct-16 04:46 UTC. Time now 2017-Oct-17 17:13 UTC.
Position N 36°02' W 004°50'.

Length 366 m; draft 13.1 m.

Type: Ship (hazmat cat A). MMSI: 477652300.

Date/timePositionNaut miles runAvg speedWind from/ knotsBaromVisibWave heightAir tempDewpointWater temp
2017-Oct-16 04:46N 36°02' W 004°50'718.7
2017-Oct-16 04:25N 36°02' W 004°58'918.6
2017-Oct-16 03:57N 36°02' W 005°09'819.3
2017-Oct-16 03:31N 36°00' W 005°19'917.7
2017-Oct-16 03:00N 35°57' W 005°30'917.7
2017-Oct-16 02:30N 35°55' W 005°41'1118.4
2017-Oct-16 01:54N 35°55' W 005°54'1218.0
2017-Oct-16 01:13N 35°54' W 006°09'1417.3
2017-Oct-16 00:24N 35°57' W 006°27'816.7
2017-Oct-15 23:57N 35°59' W 006°36'816.2
2017-Oct-15 23:28N 36°01' W 006°45'4416.9
2017-Oct-15 20:52N 36°13' W 007°37'717.2
2017-Oct-15 20:27N 36°15' W 007°46'716.9
2017-Oct-15 20:00N 36°17' W 007°55'917.3
2017-Oct-15 19:30N 36°19' W 008°05'918.0
2017-Oct-15 19:00N 36°21' W 008°16'918.0
2017-Oct-15 18:31N 36°23' W 008°27'917.8
2017-Oct-15 18:00N 36°25' W 008°38'918.1
2017-Oct-15 17:31N 36°28' W 008°48'918.6
2017-Oct-15 17:01N 36°30' W 008°60'919.0
2017-Oct-15 16:31N 36°33' W 009°11'918.1
2017-Oct-15 16:01N 36°37' W 009°21'918.0
2017-Oct-15 15:30N 36°44' W 009°29'917.5
2017-Oct-15 15:00N 36°51' W 009°34'1817.7
2017-Oct-15 14:00N 37°09' W 009°39'917.5
2017-Oct-15 13:31N 37°17' W 009°41'917.1
2017-Oct-15 13:00N 37°25' W 009°44'917.0
2017-Oct-15 12:30N 37°34' W 009°46'917.2
2017-Oct-15 12:00N 37°42' W 009°49'917.3
2017-Oct-15 11:30N 37°50' W 009°52'917.7
2017-Oct-15 11:00N 37°59' W 009°54'918.0
2017-Oct-15 10:30N 38°08' W 009°57'917.9
2017-Oct-15 10:00N 38°17' W 009°59'918.4
2017-Oct-15 09:30N 38°25' W 010°02'918.1
2017-Oct-15 09:00N 38°34' W 010°05'918.1
2017-Oct-15 08:30N 38°43' W 010°07'918.2
2017-Oct-15 08:00N 38°52' W 010°06'918.1
2017-Oct-15 07:31N 39°01' W 010°07'1019.3
2017-Oct-15 07:01N 39°11' W 010°07'1019.7
2017-Oct-15 06:31N 39°21' W 010°07'1019.5
2017-Oct-15 06:01N 39°31' W 010°07'1019.1
2017-Oct-15 05:30N 39°40' W 010°07'1019.6
2017-Oct-15 05:01N 39°50' W 010°06'1019.4
2017-Oct-15 04:30N 39°60' W 010°06'1019.3
2017-Oct-15 04:00N 40°09' W 010°05'1019.1
2017-Oct-15 03:30N 40°19' W 010°05'48719.0
2017-Oct-14 01:48N 48°01' W 006°29'4419.6
2017-Oct-13 23:34N 48°40' W 005°59'119.1
2017-Oct-13 23:30N 48°41' W 005°58'1119.0
2017-Oct-13 22:54N 48°51' W 005°52'718.1
2017-Oct-13 22:30N 48°57' W 005°45'1218.5
2017-Oct-13 21:53N 49°04' W 005°31'718.3
2017-Oct-13 21:30N 49°08' W 005°23'1018.2
2017-Oct-13 20:58N 49°15' W 005°12'918.4
2017-Oct-13 20:30N 49°21' W 005°02'1018.3
2017-Oct-13 19:56N 49°27' W 004°50'918.0
2017-Oct-13 19:26N 49°33' W 004°39'818.4
2017-Oct-13 19:00N 49°38' W 004°30'1118.6
2017-Oct-13 18:23N 49°46' W 004°17'818.7
2017-Oct-13 17:59N 49°51' W 004°08'918.7
2017-Oct-13 17:30N 49°56' W 003°57'918.5
2017-Oct-13 17:00N 50°02' W 003°46'918.4
2017-Oct-13 16:31N 50°08' W 003°35'917.5
2017-Oct-13 16:01N 50°15' W 003°27'917.5
2017-Oct-13 15:30N 50°24' W 003°26'3 6.8
2017-Oct-13 15:00N 50°26' W 003°22'917.7
2017-Oct-13 14:30N 50°26' W 003°08'918.0
2017-Oct-13 14:00N 50°26' W 002°54'917.7
2017-Oct-13 13:30N 50°26' W 002°40'917.1
2017-Oct-13 13:01N 50°26' W 002°26'916.7
2017-Oct-13 12:28N 50°27' W 002°12'817.0
2017-Oct-13 12:00N 50°27' W 001°60'917.3
2017-Oct-13 11:29N 50°27' W 001°46'817.8
2017-Oct-13 11:00N 50°28' W 001°32'918.5
2017-Oct-13 10:31N 50°28' W 001°18'918.9
2017-Oct-13 10:01N 50°29' W 001°03'1019.4
2017-Oct-13 09:30N 50°29' W 000°48'1020.1
2017-Oct-13 09:00N 50°30' W 000°32'1020.0
2017-Oct-13 08:30N 50°30' W 000°17'1019.6
2017-Oct-13 07:59N 50°31' W 000°01'919.1
2017-Oct-13 07:30N 50°33' E 000°14'1019.1
2017-Oct-13 07:00N 50°35' E 000°28'1019.0
2017-Oct-13 06:30N 50°39' E 000°42'919.0
2017-Oct-13 06:00N 50°45' E 000°53'918.3
2017-Oct-13 05:30N 50°50' E 001°06'917.9
2017-Oct-13 05:00N 50°55' E 001°18'917.8
2017-Oct-13 04:30N 51°01' E 001°27'918.4
2017-Oct-13 04:00N 51°08' E 001°37'918.7
2017-Oct-13 03:30N 51°15' E 001°48'1019.6
2017-Oct-13 03:00N 51°23' E 001°56'816.9
2017-Oct-13 02:30N 51°23' E 002°09'918.8
2017-Oct-13 02:00N 51°22' E 002°24'1019.3
2017-Oct-13 01:30N 51°23' E 002°40'713.4
2017-Oct-13 00:58N 51°25' E 002°50'714.5
2017-Oct-13 00:30N 51°25' E 003°01'714.5
2017-Oct-13 00:00N 51°24' E 003°13'815.0
2017-Oct-12 23:30N 51°25' E 003°25'612.6
2017-Oct-12 23:00N 51°26' E 003°35'5 9.8
2017-Oct-12 22:31N 51°25' E 003°42'713.4
2017-Oct-12 22:00N 51°21' E 003°51'714.0
2017-Oct-12 21:31N 51°26' E 003°59'612.0
2017-Oct-12 21:00N 51°22' E 004°06'5 9.3
2017-Oct-12 20:30N 51°22' E 004°14'4 7.9
2017-Oct-12 20:00N 51°18' E 004°16'1 1.3
2017-Oct-12 19:28N 51°18' E 004°16'0 0.0
2017-Oct-12 18:58N 51°18' E 004°16'0 0.0
2017-Oct-12 18:28N 51°18' E 004°16'0 0.0
2017-Oct-12 17:58N 51°18' E 004°16'0 0.0
2017-Oct-12 17:28N 51°18' E 004°16'0 0.0
2017-Oct-12 16:58N 51°18' E 004°16'0 0.0
2017-Oct-12 16:28N 51°18' E 004°16'0 0.0
2017-Oct-12 15:58N 51°18' E 004°16'0 0.0
2017-Oct-12 15:28N 51°18' E 004°16'0 0.0
2017-Oct-12 14:58N 51°18' E 004°16'0 0.0
2017-Oct-12 14:28N 51°18' E 004°16'0 0.0
2017-Oct-12 13:58N 51°18' E 004°16'0 0.0
2017-Oct-12 13:28N 51°18' E 004°16'0 0.0
2017-Oct-12 12:58N 51°18' E 004°16'0 0.0
2017-Oct-12 12:28N 51°18' E 004°16'0 0.0
2017-Oct-12 11:58N 51°18' E 004°16'0 0.0
2017-Oct-12 11:28N 51°18' E 004°16'0 0.0
2017-Oct-12 10:58N 51°18' E 004°16'0 0.0
2017-Oct-12 10:28N 51°18' E 004°16'0 0.0
2017-Oct-12 09:58N 51°18' E 004°16'0 0.0
2017-Oct-12 09:28N 51°18' E 004°16'0 0.0
2017-Oct-12 08:58N 51°18' E 004°16'0 0.0
2017-Oct-12 08:28N 51°18' E 004°16'0 0.0
2017-Oct-12 07:55N 51°18' E 004°16'0 0.0
2017-Oct-12 07:28N 51°18' E 004°16'0 0.0
2017-Oct-12 06:55N 51°18' E 004°16'0 0.0
2017-Oct-12 06:28N 51°18' E 004°16'0 0.0
2017-Oct-12 05:58N 51°18' E 004°16'0 0.0
2017-Oct-12 05:28N 51°18' E 004°16'0 0.0
2017-Oct-12 04:58N 51°18' E 004°16'0 0.0
2017-Oct-12 04:28N 51°18' E 004°16'0 0.0
2017-Oct-12 03:58N 51°18' E 004°16'0 0.0
2017-Oct-12 03:28N 51°18' E 004°16'0 0.0
2017-Oct-12 02:58N 51°18' E 004°16'0 0.0
2017-Oct-12 02:28N 51°18' E 004°16'0 0.0
2017-Oct-12 01:58N 51°18' E 004°16'0 0.0
2017-Oct-12 01:28N 51°18' E 004°16'0 0.0
2017-Oct-12 00:58N 51°18' E 004°16'0 0.0
2017-Oct-12 00:28N 51°18' E 004°16'0 0.0
2017-Oct-11 23:58N 51°18' E 004°16'0 0.0
2017-Oct-11 23:28N 51°18' E 004°16'0 0.0
2017-Oct-11 22:58N 51°18' E 004°16'0 0.0
2017-Oct-11 22:28N 51°18' E 004°16'0 0.0
2017-Oct-11 21:58N 51°18' E 004°16'0 0.0
2017-Oct-11 21:28N 51°18' E 004°16'0 0.0
2017-Oct-11 20:58N 51°18' E 004°16'0 0.0
2017-Oct-11 20:28N 51°18' E 004°16'0 0.0
2017-Oct-11 19:58N 51°18' E 004°16'0 0.0
2017-Oct-11 19:28N 51°18' E 004°16'0 0.0
2017-Oct-11 18:55N 51°18' E 004°16'0 0.0
2017-Oct-11 18:25N 51°18' E 004°16'0 0.0
2017-Oct-11 17:58N 51°18' E 004°16'0 0.0
2017-Oct-11 17:28N 51°18' E 004°16'0 0.0
2017-Oct-11 16:58N 51°18' E 004°16'27 1.6
2017-Oct-11 00:00N 51°26' E 003°35'5 9.7
2017-Oct-10 23:30N 51°25' E 003°27'817.0
2017-Oct-10 23:00N 51°25' E 003°14'715.0
2017-Oct-10 22:31N 51°25' E 003°02'612.1
2017-Oct-10 22:00N 51°31' E 003°04'917.8
2017-Oct-10 21:30N 51°38' E 003°11'612.7
2017-Oct-10 21:00N 51°44' E 003°14'3 5.6
2017-Oct-10 20:30N 51°47' E 003°16'2 4.2
2017-Oct-10 19:57N 51°49' E 003°16'4 8.2
2017-Oct-10 19:29N 51°53' E 003°18'19 8.4
2017-Oct-10 17:14N 52°12' E 003°23'2 7.6
2017-Oct-10 17:00N 52°13' E 003°23'4 7.5
2017-Oct-10 16:29N 52°17' E 003°25'4 7.4
2017-Oct-10 15:59N 52°21' E 003°26'3 6.1
2017-Oct-10 15:29N 52°24' E 003°27'3 6.7
2017-Oct-10 14:59N 52°27' E 003°28'12 7.5
2017-Oct-10 13:20N 52°39' E 003°34'3 8.0
2017-Oct-10 12:56N 52°41' E 003°37'3 8.1
2017-Oct-10 12:30N 52°44' E 003°41'4 8.2
2017-Oct-10 12:00N 52°47' E 003°45'4 8.2
2017-Oct-10 11:30N 52°50' E 003°49'4 7.8
2017-Oct-10 11:00N 52°53' E 003°54'4 7.6
2017-Oct-10 10:30N 52°56' E 003°58'4 7.4
2017-Oct-10 10:00N 52°58' E 004°03'4 8.3
2017-Oct-10 09:30N 53°01' E 004°08'4 8.1
2017-Oct-10 09:00N 53°04' E 004°13'4 7.8
2017-Oct-10 08:30N 53°07' E 004°18'4 7.5
2017-Oct-10 08:00N 53°09' E 004°22'4 7.2
2017-Oct-10 07:30N 53°12' E 004°27'4 7.4
2017-Oct-10 07:00N 53°15' E 004°29'5 7.1
2017-Oct-10 06:19N 53°19' E 004°32'2 5.2
2017-Oct-10 05:55N 53°21' E 004°33'2 5.4
2017-Oct-10 05:29N 53°24' E 004°34'3 6.0
2017-Oct-10 04:59N 53°26' E 004°37'3 6.4
2017-Oct-10 04:29N 53°29' E 004°40'4 7.3
2017-Oct-10 04:00N 53°30' E 004°45'4 7.5
2017-Oct-10 03:30N 53°32' E 004°51'4 7.6
2017-Oct-10 03:00N 53°33' E 004°57'4 7.4
2017-Oct-10 02:30N 53°35' E 005°03'4 7.4
2017-Oct-10 02:00N 53°36' E 005°08'4 7.1
2017-Oct-10 01:30N 53°37' E 005°14'3 6.9
2017-Oct-10 01:00N 53°38' E 005°20'6 6.4
2017-Oct-10 00:00N 53°40' E 005°30'81 6.9
2017-Oct-09 12:19N 54°01' E 007°42'616.6
2017-Oct-09 11:58N 54°02' E 007°52'816.5
2017-Oct-09 11:30N 54°01' E 008°05'612.8
2017-Oct-09 11:00N 54°00' E 008°15'713.1
2017-Oct-09 10:30N 53°59' E 008°26'815.5
2017-Oct-09 10:00N 53°57' E 008°39'815.9
2017-Oct-09 09:30N 53°50' E 008°47'917.1
2017-Oct-09 09:00N 53°52' E 009°02'714.2
2017-Oct-09 08:30N 53°53' E 009°13'815.8
2017-Oct-09 08:01N 53°47' E 009°23'815.5
2017-Oct-09 07:30N 53°41' E 009°30'612.2
2017-Oct-09 07:00N 53°36' E 009°36'510.5
2017-Oct-09 06:30N 53°34' E 009°44'5 9.4
2017-Oct-09 06:00N 53°33' E 009°52'3 6.0
2017-Oct-09 05:30N 53°32' E 009°57'1 1.0
2017-Oct-09 04:59N 53°32' E 009°57'0 0.0
2017-Oct-09 04:29N 53°32' E 009°57'0 0.0
2017-Oct-09 03:59N 53°32' E 009°57'0 0.0
2017-Oct-09 03:29N 53°32' E 009°57'0 0.0
2017-Oct-09 02:59N 53°32' E 009°57'0 0.0
2017-Oct-09 02:29N 53°32' E 009°57'0 0.0
2017-Oct-09 01:59N 53°32' E 009°57'0 0.0
2017-Oct-09 01:29N 53°32' E 009°57'0 0.0
2017-Oct-09 00:59N 53°32' E 009°57'0 0.0
2017-Oct-09 00:29N 53°32' E 009°57'0 0.0
2017-Oct-08 23:59N 53°32' E 009°57'0 0.0
2017-Oct-08 23:29N 53°32' E 009°57'0 0.0
2017-Oct-08 22:59N 53°32' E 009°57'0 0.0
2017-Oct-08 22:29N 53°32' E 009°57'0 0.0
2017-Oct-08 21:59N 53°32' E 009°57'0 0.0
2017-Oct-08 21:29N 53°32' E 009°57'0 0.0
2017-Oct-08 20:59N 53°32' E 009°57'0 0.0
2017-Oct-08 20:29N 53°32' E 009°57'0 0.0
2017-Oct-08 19:59N 53°32' E 009°57'0 0.0
2017-Oct-08 19:29N 53°32' E 009°57'0 0.0
2017-Oct-08 18:59N 53°32' E 009°57'0 0.0
2017-Oct-08 18:29N 53°32' E 009°57'0 0.0
2017-Oct-08 17:59N 53°32' E 009°57'0 0.0
2017-Oct-08 17:29N 53°32' E 009°57'0 0.0
2017-Oct-08 16:59N 53°32' E 009°57'0 0.0
2017-Oct-08 16:29N 53°32' E 009°57'0 0.0
2017-Oct-08 15:59N 53°32' E 009°57'0 0.0
2017-Oct-08 15:29N 53°32' E 009°57'0 0.0
2017-Oct-08 14:59N 53°32' E 009°57'0 0.0
2017-Oct-08 14:29N 53°32' E 009°57'0 0.0
2017-Oct-08 13:59N 53°32' E 009°57'0 0.0
2017-Oct-08 13:29N 53°32' E 009°57'0 0.0
2017-Oct-08 12:59N 53°32' E 009°57'0 0.0
2017-Oct-08 12:29N 53°32' E 009°57'0 0.0
2017-Oct-08 11:59N 53°32' E 009°57'0 0.0
2017-Oct-08 11:29N 53°32' E 009°57'0 0.0
2017-Oct-08 10:59N 53°32' E 009°57'0 0.0
2017-Oct-08 10:29N 53°32' E 009°57'0 0.0
2017-Oct-08 09:59N 53°32' E 009°57'0 0.0
2017-Oct-08 09:29N 53°32' E 009°57'0 0.0
2017-Oct-08 08:59N 53°32' E 009°57'0 0.0
2017-Oct-08 08:29N 53°32' E 009°57'0 0.0
2017-Oct-08 07:59N 53°32' E 009°57'0 0.0
2017-Oct-08 07:29N 53°32' E 009°57'0 0.0
2017-Oct-08 06:59N 53°32' E 009°57'0 0.0
2017-Oct-08 06:29N 53°32' E 009°57'0 0.0
2017-Oct-08 05:59N 53°32' E 009°57'0 0.0
2017-Oct-08 05:29N 53°32' E 009°57'0 0.0
2017-Oct-08 04:59N 53°32' E 009°57'0 0.0
2017-Oct-08 04:29N 53°32' E 009°57'0 0.0
2017-Oct-08 03:59N 53°32' E 009°57'0 0.0
2017-Oct-08 03:29N 53°32' E 009°57'0 0.0
2017-Oct-08 02:59N 53°32' E 009°57'0 0.0
2017-Oct-08 02:29N 53°32' E 009°57'0 0.0
2017-Oct-08 01:56N 53°32' E 009°57'0 0.0
2017-Oct-08 01:29N 53°32' E 009°57'0 0.0
2017-Oct-08 00:59N 53°32' E 009°57'0 0.0
2017-Oct-08 00:29N 53°32' E 009°57'0 0.0
2017-Oct-07 23:59N 53°32' E 009°57'0 0.0
2017-Oct-07 23:29N 53°32' E 009°57'0 0.0
2017-Oct-07 22:59N 53°32' E 009°57'0 0.0
2017-Oct-07 22:29N 53°32' E 009°57'0 0.0
2017-Oct-07 21:59N 53°32' E 009°57'0 0.0
2017-Oct-07 21:29N 53°32' E 009°57'0 0.0
2017-Oct-07 20:59N 53°32' E 009°57'0 0.0
2017-Oct-07 20:29N 53°32' E 009°57'0 0.0
2017-Oct-07 19:59N 53°32' E 009°57'0 0.0
2017-Oct-07 19:29N 53°32' E 009°57'0 0.0
2017-Oct-07 18:59N 53°32' E 009°57'0 0.0
2017-Oct-07 18:29N 53°32' E 009°57'0 0.0
2017-Oct-07 17:59N 53°32' E 009°57'0 0.0
2017-Oct-07 17:29N 53°32' E 009°57'0 0.0
2017-Oct-07 16:59N 53°32' E 009°57'0 0.0
2017-Oct-07 16:29N 53°32' E 009°57'0 0.0
2017-Oct-07 15:59N 53°32' E 009°57'0 0.0
2017-Oct-07 15:29N 53°32' E 009°57'0 0.0
2017-Oct-07 14:59N 53°32' E 009°57'0 0.0
2017-Oct-07 14:29N 53°32' E 009°57'0 0.0
2017-Oct-07 13:59N 53°32' E 009°57'0 0.0
2017-Oct-07 13:29N 53°32' E 009°57'0 0.0
2017-Oct-07 12:59N 53°32' E 009°57'0 0.0
2017-Oct-07 12:29N 53°32' E 009°57'0 0.0
2017-Oct-07 11:59N 53°32' E 009°57'0 0.0
2017-Oct-07 11:29N 53°32' E 009°57'0 0.0
2017-Oct-07 10:59N 53°32' E 009°57'0 0.0
2017-Oct-07 10:29N 53°32' E 009°57'0 0.0
2017-Oct-07 09:59N 53°32' E 009°57'0 0.0
2017-Oct-07 09:29N 53°32' E 009°57'0 0.0
2017-Oct-07 08:59N 53°32' E 009°57'0 0.0
2017-Oct-07 08:29N 53°32' E 009°57'0 0.0
2017-Oct-07 07:59N 53°32' E 009°57'0 0.0
2017-Oct-07 07:29N 53°32' E 009°57'0 0.0
2017-Oct-07 06:59N 53°32' E 009°57'0 0.0
2017-Oct-07 06:29N 53°32' E 009°57'0 0.0
2017-Oct-07 05:59N 53°32' E 009°57'0 0.0
2017-Oct-07 05:29N 53°32' E 009°57'0 0.0
2017-Oct-07 04:59N 53°32' E 009°57'0 0.0
2017-Oct-07 04:29N 53°32' E 009°57'0 0.0
2017-Oct-07 03:59N 53°32' E 009°57'0 0.0
2017-Oct-07 03:30N 53°32' E 009°57'0 0.5
2017-Oct-07 03:00N 53°32' E 009°57'2 3.7
2017-Oct-07 02:30N 53°32' E 009°54'4 7.7
2017-Oct-07 02:00N 53°33' E 009°48'5 9.8
2017-Oct-07 01:31N 53°34' E 009°40'613.0
2017-Oct-07 01:00N 53°38' E 009°31'612.9
2017-Oct-07 00:30N 53°44' E 009°26'815.6
2017-Oct-07 00:00N 53°51' E 009°20'612.9
2017-Oct-06 23:31N 53°53' E 009°09'713.1
2017-Oct-06 23:00N 53°51' E 008°59'815.8
2017-Oct-06 22:30N 53°51' E 008°45'713.8
2017-Oct-06 22:00N 53°57' E 008°38'816.1
2017-Oct-06 21:30N 53°59' E 008°25'28 2.9
2017-Oct-06 11:45N 54°12' E 007°43'4 1.3
2017-Oct-06 08:50N 54°14' E 007°38'5 2.3
2017-Oct-06 06:55N 54°10' E 007°39'1 3.1
2017-Oct-06 06:30N 54°08' E 007°39'  
Track history (hours):
 
Tides and Currents Weather Stations Pressure Air Temp Water Temp Dewpoint Dewpoint Depression Visibility Wind Speed Wind Dir Waves Ship Positions

Cosco England

Last reported at 2017-Oct-16 04:46 UTC. Time now 2017-Oct-17 17:13 UTC.
Position N 36°02' W 004°50'.

Length 366 m; draft 13.1 m.

Type: Ship (hazmat cat A). MMSI: 477652300.

Date/timePositionNaut miles runAvg speedWind from/ knotsBaromVisibWave heightAir tempDewpointWater temp
2017-Oct-16 04:46N 36°02' W 004°50'718.7
2017-Oct-16 04:25N 36°02' W 004°58'918.6
2017-Oct-16 03:57N 36°02' W 005°09'819.3
2017-Oct-16 03:31N 36°00' W 005°19'917.7
2017-Oct-16 03:00N 35°57' W 005°30'917.7
2017-Oct-16 02:30N 35°55' W 005°41'1118.4
2017-Oct-16 01:54N 35°55' W 005°54'1218.0
2017-Oct-16 01:13N 35°54' W 006°09'1417.3
2017-Oct-16 00:24N 35°57' W 006°27'816.7
2017-Oct-15 23:57N 35°59' W 006°36'816.2
2017-Oct-15 23:28N 36°01' W 006°45'4416.9
2017-Oct-15 20:52N 36°13' W 007°37'717.2
2017-Oct-15 20:27N 36°15' W 007°46'716.9
2017-Oct-15 20:00N 36°17' W 007°55'917.3
2017-Oct-15 19:30N 36°19' W 008°05'918.0
2017-Oct-15 19:00N 36°21' W 008°16'918.0
2017-Oct-15 18:31N 36°23' W 008°27'917.8
2017-Oct-15 18:00N 36°25' W 008°38'918.1
2017-Oct-15 17:31N 36°28' W 008°48'918.6
2017-Oct-15 17:01N 36°30' W 008°60'919.0
2017-Oct-15 16:31N 36°33' W 009°11'918.1
2017-Oct-15 16:01N 36°37' W 009°21'918.0
2017-Oct-15 15:30N 36°44' W 009°29'917.5
2017-Oct-15 15:00N 36°51' W 009°34'1817.7
2017-Oct-15 14:00N 37°09' W 009°39'917.5
2017-Oct-15 13:31N 37°17' W 009°41'917.1
2017-Oct-15 13:00N 37°25' W 009°44'917.0
2017-Oct-15 12:30N 37°34' W 009°46'917.2
2017-Oct-15 12:00N 37°42' W 009°49'917.3
2017-Oct-15 11:30N 37°50' W 009°52'917.7
2017-Oct-15 11:00N 37°59' W 009°54'918.0
2017-Oct-15 10:30N 38°08' W 009°57'917.9
2017-Oct-15 10:00N 38°17' W 009°59'918.4
2017-Oct-15 09:30N 38°25' W 010°02'918.1
2017-Oct-15 09:00N 38°34' W 010°05'918.1
2017-Oct-15 08:30N 38°43' W 010°07'918.2
2017-Oct-15 08:00N 38°52' W 010°06'918.1
2017-Oct-15 07:31N 39°01' W 010°07'1019.3
2017-Oct-15 07:01N 39°11' W 010°07'1019.7
2017-Oct-15 06:31N 39°21' W 010°07'1019.5
2017-Oct-15 06:01N 39°31' W 010°07'1019.1
2017-Oct-15 05:30N 39°40' W 010°07'1019.6
2017-Oct-15 05:01N 39°50' W 010°06'1019.4
2017-Oct-15 04:30N 39°60' W 010°06'1019.3
2017-Oct-15 04:00N 40°09' W 010°05'1019.1
2017-Oct-15 03:30N 40°19' W 010°05'48719.0
2017-Oct-14 01:48N 48°01' W 006°29'4419.6
2017-Oct-13 23:34N 48°40' W 005°59'119.1
2017-Oct-13 23:30N 48°41' W 005°58'1119.0
2017-Oct-13 22:54N 48°51' W 005°52'718.1
2017-Oct-13 22:30N 48°57' W 005°45'1218.5
2017-Oct-13 21:53N 49°04' W 005°31'718.3
2017-Oct-13 21:30N 49°08' W 005°23'1018.2
2017-Oct-13 20:58N 49°15' W 005°12'918.4
2017-Oct-13 20:30N 49°21' W 005°02'1018.3
2017-Oct-13 19:56N 49°27' W 004°50'918.0
2017-Oct-13 19:26N 49°33' W 004°39'818.4
2017-Oct-13 19:00N 49°38' W 004°30'1118.6
2017-Oct-13 18:23N 49°46' W 004°17'818.7
2017-Oct-13 17:59N 49°51' W 004°08'918.7
2017-Oct-13 17:30N 49°56' W 003°57'918.5
2017-Oct-13 17:00N 50°02' W 003°46'918.4
2017-Oct-13 16:31N 50°08' W 003°35'917.5
2017-Oct-13 16:01N 50°15' W 003°27'917.5
2017-Oct-13 15:30N 50°24' W 003°26'3 6.8
2017-Oct-13 15:00N 50°26' W 003°22'917.7
2017-Oct-13 14:30N 50°26' W 003°08'918.0
2017-Oct-13 14:00N 50°26' W 002°54'917.7
2017-Oct-13 13:30N 50°26' W 002°40'917.1
2017-Oct-13 13:01N 50°26' W 002°26'916.7
2017-Oct-13 12:28N 50°27' W 002°12'817.0
2017-Oct-13 12:00N 50°27' W 001°60'917.3
2017-Oct-13 11:29N 50°27' W 001°46'817.8
2017-Oct-13 11:00N 50°28' W 001°32'918.5
2017-Oct-13 10:31N 50°28' W 001°18'918.9
2017-Oct-13 10:01N 50°29' W 001°03'1019.4
2017-Oct-13 09:30N 50°29' W 000°48'1020.1
2017-Oct-13 09:00N 50°30' W 000°32'1020.0
2017-Oct-13 08:30N 50°30' W 000°17'1019.6
2017-Oct-13 07:59N 50°31' W 000°01'919.1
2017-Oct-13 07:30N 50°33' E 000°14'1019.1
2017-Oct-13 07:00N 50°35' E 000°28'1019.0
2017-Oct-13 06:30N 50°39' E 000°42'919.0
2017-Oct-13 06:00N 50°45' E 000°53'918.3
2017-Oct-13 05:30N 50°50' E 001°06'917.9
2017-Oct-13 05:00N 50°55' E 001°18'917.8
2017-Oct-13 04:30N 51°01' E 001°27'918.4
2017-Oct-13 04:00N 51°08' E 001°37'918.7
2017-Oct-13 03:30N 51°15' E 001°48'1019.6
2017-Oct-13 03:00N 51°23' E 001°56'816.9
2017-Oct-13 02:30N 51°23' E 002°09'918.8
2017-Oct-13 02:00N 51°22' E 002°24'1019.3
2017-Oct-13 01:30N 51°23' E 002°40'713.4
2017-Oct-13 00:58N 51°25' E 002°50'714.5
2017-Oct-13 00:30N 51°25' E 003°01'714.5
2017-Oct-13 00:00N 51°24' E 003°13'815.0
2017-Oct-12 23:30N 51°25' E 003°25'612.6
2017-Oct-12 23:00N 51°26' E 003°35'5 9.8
2017-Oct-12 22:31N 51°25' E 003°42'713.4
2017-Oct-12 22:00N 51°21' E 003°51'714.0
2017-Oct-12 21:31N 51°26' E 003°59'612.0
2017-Oct-12 21:00N 51°22' E 004°06'5 9.3
2017-Oct-12 20:30N 51°22' E 004°14'4 7.9
2017-Oct-12 20:00N 51°18' E 004°16'1 1.3
2017-Oct-12 19:28N 51°18' E 004°16'0 0.0
2017-Oct-12 18:58N 51°18' E 004°16'0 0.0
2017-Oct-12 18:28N 51°18' E 004°16'0 0.0
2017-Oct-12 17:58N 51°18' E 004°16'0 0.0
2017-Oct-12 17:28N 51°18' E 004°16'0 0.0
2017-Oct-12 16:58N 51°18' E 004°16'0 0.0
2017-Oct-12 16:28N 51°18' E 004°16'0 0.0
2017-Oct-12 15:58N 51°18' E 004°16'0 0.0
2017-Oct-12 15:28N 51°18' E 004°16'0 0.0
2017-Oct-12 14:58N 51°18' E 004°16'0 0.0
2017-Oct-12 14:28N 51°18' E 004°16'0 0.0
2017-Oct-12 13:58N 51°18' E 004°16'0 0.0
2017-Oct-12 13:28N 51°18' E 004°16'0 0.0
2017-Oct-12 12:58N 51°18' E 004°16'0 0.0
2017-Oct-12 12:28N 51°18' E 004°16'0 0.0
2017-Oct-12 11:58N 51°18' E 004°16'0 0.0
2017-Oct-12 11:28N 51°18' E 004°16'0 0.0
2017-Oct-12 10:58N 51°18' E 004°16'0 0.0
2017-Oct-12 10:28N 51°18' E 004°16'0 0.0
2017-Oct-12 09:58N 51°18' E 004°16'0 0.0
2017-Oct-12 09:28N 51°18' E 004°16'0 0.0
2017-Oct-12 08:58N 51°18' E 004°16'0 0.0
2017-Oct-12 08:28N 51°18' E 004°16'0 0.0
2017-Oct-12 07:55N 51°18' E 004°16'0 0.0
2017-Oct-12 07:28N 51°18' E 004°16'0 0.0
2017-Oct-12 06:55N 51°18' E 004°16'0 0.0
2017-Oct-12 06:28N 51°18' E 004°16'0 0.0
2017-Oct-12 05:58N 51°18' E 004°16'0 0.0
2017-Oct-12 05:28N 51°18' E 004°16'0 0.0
2017-Oct-12 04:58N 51°18' E 004°16'0 0.0
2017-Oct-12 04:28N 51°18' E 004°16'0 0.0
2017-Oct-12 03:58N 51°18' E 004°16'0 0.0
2017-Oct-12 03:28N 51°18' E 004°16'0 0.0
2017-Oct-12 02:58N 51°18' E 004°16'0 0.0
2017-Oct-12 02:28N 51°18' E 004°16'0 0.0
2017-Oct-12 01:58N 51°18' E 004°16'0 0.0
2017-Oct-12 01:28N 51°18' E 004°16'0 0.0
2017-Oct-12 00:58N 51°18' E 004°16'0 0.0
2017-Oct-12 00:28N 51°18' E 004°16'0 0.0
2017-Oct-11 23:58N 51°18' E 004°16'0 0.0
2017-Oct-11 23:28N 51°18' E 004°16'0 0.0
2017-Oct-11 22:58N 51°18' E 004°16'0 0.0
2017-Oct-11 22:28N 51°18' E 004°16'0 0.0
2017-Oct-11 21:58N 51°18' E 004°16'0 0.0
2017-Oct-11 21:28N 51°18' E 004°16'0 0.0
2017-Oct-11 20:58N 51°18' E 004°16'0 0.0
2017-Oct-11 20:28N 51°18' E 004°16'0 0.0
2017-Oct-11 19:58N 51°18' E 004°16'0 0.0
2017-Oct-11 19:28N 51°18' E 004°16'0 0.0
2017-Oct-11 18:55N 51°18' E 004°16'0 0.0
2017-Oct-11 18:25N 51°18' E 004°16'0 0.0
2017-Oct-11 17:58N 51°18' E 004°16'0 0.0
2017-Oct-11 17:28N 51°18' E 004°16'0 0.0
2017-Oct-11 16:58N 51°18' E 004°16'27 1.6
2017-Oct-11 00:00N 51°26' E 003°35'5 9.7
2017-Oct-10 23:30N 51°25' E 003°27'817.0
2017-Oct-10 23:00N 51°25' E 003°14'715.0
2017-Oct-10 22:31N 51°25' E 003°02'612.1
2017-Oct-10 22:00N 51°31' E 003°04'917.8
2017-Oct-10 21:30N 51°38' E 003°11'612.7
2017-Oct-10 21:00N 51°44' E 003°14'3 5.6
2017-Oct-10 20:30N 51°47' E 003°16'2 4.2
2017-Oct-10 19:57N 51°49' E 003°16'4 8.2
2017-Oct-10 19:29N 51°53' E 003°18'19 8.4
2017-Oct-10 17:14N 52°12' E 003°23'2 7.6
2017-Oct-10 17:00N 52°13' E 003°23'4 7.5
2017-Oct-10 16:29N 52°17' E 003°25'4 7.4
2017-Oct-10 15:59N 52°21' E 003°26'3 6.1
2017-Oct-10 15:29N 52°24' E 003°27'3 6.7
2017-Oct-10 14:59N 52°27' E 003°28'12 7.5
2017-Oct-10 13:20N 52°39' E 003°34'3 8.0
2017-Oct-10 12:56N 52°41' E 003°37'3 8.1
2017-Oct-10 12:30N 52°44' E 003°41'4 8.2
2017-Oct-10 12:00N 52°47' E 003°45'4 8.2
2017-Oct-10 11:30N 52°50' E 003°49'4 7.8
2017-Oct-10 11:00N 52°53' E 003°54'4 7.6
2017-Oct-10 10:30N 52°56' E 003°58'4 7.4
2017-Oct-10 10:00N 52°58' E 004°03'4 8.3
2017-Oct-10 09:30N 53°01' E 004°08'4 8.1
2017-Oct-10 09:00N 53°04' E 004°13'4 7.8
2017-Oct-10 08:30N 53°07' E 004°18'4 7.5
2017-Oct-10 08:00N 53°09' E 004°22'4 7.2
2017-Oct-10 07:30N 53°12' E 004°27'4 7.4
2017-Oct-10 07:00N 53°15' E 004°29'5 7.1
2017-Oct-10 06:19N 53°19' E 004°32'2 5.2
2017-Oct-10 05:55N 53°21' E 004°33'2 5.4
2017-Oct-10 05:29N 53°24' E 004°34'3 6.0
2017-Oct-10 04:59N 53°26' E 004°37'3 6.4
2017-Oct-10 04:29N 53°29' E 004°40'4 7.3
2017-Oct-10 04:00N 53°30' E 004°45'4 7.5
2017-Oct-10 03:30N 53°32' E 004°51'4 7.6
2017-Oct-10 03:00N 53°33' E 004°57'4 7.4
2017-Oct-10 02:30N 53°35' E 005°03'4 7.4
2017-Oct-10 02:00N 53°36' E 005°08'4 7.1
2017-Oct-10 01:30N 53°37' E 005°14'3 6.9
2017-Oct-10 01:00N 53°38' E 005°20'6 6.4
2017-Oct-10 00:00N 53°40' E 005°30'81 6.9
2017-Oct-09 12:19N 54°01' E 007°42'616.6
2017-Oct-09 11:58N 54°02' E 007°52'816.5
2017-Oct-09 11:30N 54°01' E 008°05'612.8
2017-Oct-09 11:00N 54°00' E 008°15'713.1
2017-Oct-09 10:30N 53°59' E 008°26'815.5
2017-Oct-09 10:00N 53°57' E 008°39'815.9
2017-Oct-09 09:30N 53°50' E 008°47'917.1
2017-Oct-09 09:00N 53°52' E 009°02'714.2
2017-Oct-09 08:30N 53°53' E 009°13'815.8
2017-Oct-09 08:01N 53°47' E 009°23'815.5
2017-Oct-09 07:30N 53°41' E 009°30'612.2
2017-Oct-09 07:00N 53°36' E 009°36'510.5
2017-Oct-09 06:30N 53°34' E 009°44'5 9.4
2017-Oct-09 06:00N 53°33' E 009°52'3 6.0
2017-Oct-09 05:30N 53°32' E 009°57'1 1.0
2017-Oct-09 04:59N 53°32' E 009°57'0 0.0
2017-Oct-09 04:29N 53°32' E 009°57'0 0.0
2017-Oct-09 03:59N 53°32' E 009°57'0 0.0
2017-Oct-09 03:29N 53°32' E 009°57'0 0.0
2017-Oct-09 02:59N 53°32' E 009°57'0 0.0
2017-Oct-09 02:29N 53°32' E 009°57'0 0.0
2017-Oct-09 01:59N 53°32' E 009°57'0 0.0
2017-Oct-09 01:29N 53°32' E 009°57'0 0.0
2017-Oct-09 00:59N 53°32' E 009°57'0 0.0
2017-Oct-09 00:29N 53°32' E 009°57'0 0.0
2017-Oct-08 23:59N 53°32' E 009°57'0 0.0
2017-Oct-08 23:29N 53°32' E 009°57'0 0.0
2017-Oct-08 22:59N 53°32' E 009°57'0 0.0
2017-Oct-08 22:29N 53°32' E 009°57'0 0.0
2017-Oct-08 21:59N 53°32' E 009°57'0 0.0
2017-Oct-08 21:29N 53°32' E 009°57'0 0.0
2017-Oct-08 20:59N 53°32' E 009°57'0 0.0
2017-Oct-08 20:29N 53°32' E 009°57'0 0.0
2017-Oct-08 19:59N 53°32' E 009°57'0 0.0
2017-Oct-08 19:29N 53°32' E 009°57'0 0.0
2017-Oct-08 18:59N 53°32' E 009°57'0 0.0
2017-Oct-08 18:29N 53°32' E 009°57'0 0.0
2017-Oct-08 17:59N 53°32' E 009°57'0 0.0
2017-Oct-08 17:29N 53°32' E 009°57'0 0.0
2017-Oct-08 16:59N 53°32' E 009°57'0 0.0
2017-Oct-08 16:29N 53°32' E 009°57'0 0.0
2017-Oct-08 15:59N 53°32' E 009°57'0 0.0
2017-Oct-08 15:29N 53°32' E 009°57'0 0.0
2017-Oct-08 14:59N 53°32' E 009°57'0 0.0
2017-Oct-08 14:29N 53°32' E 009°57'0 0.0
2017-Oct-08 13:59N 53°32' E 009°57'0 0.0
2017-Oct-08 13:29N 53°32' E 009°57'0 0.0
2017-Oct-08 12:59N 53°32' E 009°57'0 0.0
2017-Oct-08 12:29N 53°32' E 009°57'0 0.0
2017-Oct-08 11:59N 53°32' E 009°57'0 0.0
2017-Oct-08 11:29N 53°32' E 009°57'0 0.0
2017-Oct-08 10:59N 53°32' E 009°57'0 0.0
2017-Oct-08 10:29N 53°32' E 009°57'0 0.0
2017-Oct-08 09:59N 53°32' E 009°57'0 0.0
2017-Oct-08 09:29N 53°32' E 009°57'0 0.0
2017-Oct-08 08:59N 53°32' E 009°57'0 0.0
2017-Oct-08 08:29N 53°32' E 009°57'0 0.0
2017-Oct-08 07:59N 53°32' E 009°57'0 0.0
2017-Oct-08 07:29N 53°32' E 009°57'0 0.0
2017-Oct-08 06:59N 53°32' E 009°57'0 0.0
2017-Oct-08 06:29N 53°32' E 009°57'0 0.0
2017-Oct-08 05:59N 53°32' E 009°57'0 0.0
2017-Oct-08 05:29N 53°32' E 009°57'0 0.0
2017-Oct-08 04:59N 53°32' E 009°57'0 0.0
2017-Oct-08 04:29N 53°32' E 009°57'0 0.0
2017-Oct-08 03:59N 53°32' E 009°57'0 0.0
2017-Oct-08 03:29N 53°32' E 009°57'0 0.0
2017-Oct-08 02:59N 53°32' E 009°57'0 0.0
2017-Oct-08 02:29N 53°32' E 009°57'0 0.0
2017-Oct-08 01:56N 53°32' E 009°57'0 0.0
2017-Oct-08 01:29N 53°32' E 009°57'0 0.0
2017-Oct-08 00:59N 53°32' E 009°57'0 0.0
2017-Oct-08 00:29N 53°32' E 009°57'0 0.0
2017-Oct-07 23:59N 53°32' E 009°57'0 0.0
2017-Oct-07 23:29N 53°32' E 009°57'0 0.0
2017-Oct-07 22:59N 53°32' E 009°57'0 0.0
2017-Oct-07 22:29N 53°32' E 009°57'0 0.0
2017-Oct-07 21:59N 53°32' E 009°57'0 0.0
2017-Oct-07 21:29N 53°32' E 009°57'0 0.0
2017-Oct-07 20:59N 53°32' E 009°57'0 0.0
2017-Oct-07 20:29N 53°32' E 009°57'0 0.0
2017-Oct-07 19:59N 53°32' E 009°57'0 0.0
2017-Oct-07 19:29N 53°32' E 009°57'0 0.0
2017-Oct-07 18:59N 53°32' E 009°57'0 0.0
2017-Oct-07 18:29N 53°32' E 009°57'0 0.0
2017-Oct-07 17:59N 53°32' E 009°57'0 0.0
2017-Oct-07 17:29N 53°32' E 009°57'0 0.0
2017-Oct-07 16:59N 53°32' E 009°57'0 0.0
2017-Oct-07 16:29N 53°32' E 009°57'0 0.0
2017-Oct-07 15:59N 53°32' E 009°57'0 0.0
2017-Oct-07 15:29N 53°32' E 009°57'0 0.0
2017-Oct-07 14:59N 53°32' E 009°57'0 0.0
2017-Oct-07 14:29N 53°32' E 009°57'0 0.0
2017-Oct-07 13:59N 53°32' E 009°57'0 0.0
2017-Oct-07 13:29N 53°32' E 009°57'0 0.0
2017-Oct-07 12:59N 53°32' E 009°57'0 0.0
2017-Oct-07 12:29N 53°32' E 009°57'0 0.0
2017-Oct-07 11:59N 53°32' E 009°57'0 0.0
2017-Oct-07 11:29N 53°32' E 009°57'0 0.0
2017-Oct-07 10:59N 53°32' E 009°57'0 0.0
2017-Oct-07 10:29N 53°32' E 009°57'0 0.0
2017-Oct-07 09:59N 53°32' E 009°57'0 0.0
2017-Oct-07 09:29N 53°32' E 009°57'0 0.0
2017-Oct-07 08:59N 53°32' E 009°57'0 0.0
2017-Oct-07 08:29N 53°32' E 009°57'0 0.0
2017-Oct-07 07:59N 53°32' E 009°57'0 0.0
2017-Oct-07 07:29N 53°32' E 009°57'0 0.0
2017-Oct-07 06:59N 53°32' E 009°57'0 0.0
2017-Oct-07 06:29N 53°32' E 009°57'0 0.0
2017-Oct-07 05:59N 53°32' E 009°57'0 0.0
2017-Oct-07 05:29N 53°32' E 009°57'0 0.0
2017-Oct-07 04:59N 53°32' E 009°57'0 0.0
2017-Oct-07 04:29N 53°32' E 009°57'0 0.0
2017-Oct-07 03:59N 53°32' E 009°57'0 0.0
2017-Oct-07 03:30N 53°32' E 009°57'0 0.5
2017-Oct-07 03:00N 53°32' E 009°57'2 3.7
2017-Oct-07 02:30N 53°32' E 009°54'4 7.7
2017-Oct-07 02:00N 53°33' E 009°48'5 9.8
2017-Oct-07 01:31N 53°34' E 009°40'613.0
2017-Oct-07 01:00N 53°38' E 009°31'612.9
2017-Oct-07 00:30N 53°44' E 009°26'815.6
2017-Oct-07 00:00N 53°51' E 009°20'612.9
2017-Oct-06 23:31N 53°53' E 009°09'713.1
2017-Oct-06 23:00N 53°51' E 008°59'815.8
2017-Oct-06 22:30N 53°51' E 008°45'713.8
2017-Oct-06 22:00N 53°57' E 008°38'816.1
2017-Oct-06 21:30N 53°59' E 008°25'28 2.9
2017-Oct-06 11:45N 54°12' E 007°43'4 1.3
2017-Oct-06 08:50N 54°14' E 007°38'5 2.3
2017-Oct-06 06:55N 54°10' E 007°39'1 3.1
2017-Oct-06 06:30N 54°08' E 007°39'  

Dump ship's entire track history